sensor_id;sensor_type;location;lat;lon;timestamp;P1;durP1;ratioP1;P2;durP2;ratioP2
46561;SDS011;32289;42.688;23.330;2023-03-01T00:02:54;22.38;;;9.85;;
46561;SDS011;32289;42.688;23.330;2023-03-01T00:06:35;14.88;;;8.88;;
46561;SDS011;32289;42.688;23.330;2023-03-01T00:10:16;11.35;;;5.78;;
46561;SDS011;32289;42.688;23.330;2023-03-01T00:13:57;6.70;;;3.42;;
46561;SDS011;32289;42.688;23.330;2023-03-01T00:17:40;11.10;;;6.90;;
46561;SDS011;32289;42.688;23.330;2023-03-01T00:21:21;6.25;;;3.17;;
46561;SDS011;32289;42.688;23.330;2023-03-01T00:25:03;4.72;;;1.70;;
46561;SDS011;32289;42.688;23.330;2023-03-01T00:28:44;3.35;;;1.58;;
46561;SDS011;32289;42.688;23.330;2023-03-01T00:32:25;3.75;;;1.50;;
46561;SDS011;32289;42.688;23.330;2023-03-01T00:36:06;5.57;;;3.00;;
46561;SDS011;32289;42.688;23.330;2023-03-01T00:39:47;10.20;;;4.30;;
46561;SDS011;32289;42.688;23.330;2023-03-01T00:43:28;12.77;;;4.32;;
46561;SDS011;32289;42.688;23.330;2023-03-01T00:47:09;10.68;;;3.58;;
46561;SDS011;32289;42.688;23.330;2023-03-01T00:50:49;6.32;;;1.83;;
46561;SDS011;32289;42.688;23.330;2023-03-01T00:54:30;5.43;;;2.33;;
46561;SDS011;32289;42.688;23.330;2023-03-01T00:58:11;7.55;;;1.92;;
46561;SDS011;32289;42.688;23.330;2023-03-01T01:01:51;3.95;;;1.85;;
46561;SDS011;32289;42.688;23.330;2023-03-01T01:05:34;4.13;;;1.45;;
46561;SDS011;32289;42.688;23.330;2023-03-01T01:09:15;2.70;;;1.70;;
46561;SDS011;32289;42.688;23.330;2023-03-01T01:12:57;5.45;;;1.80;;
46561;SDS011;32289;42.688;23.330;2023-03-01T01:16:38;3.10;;;1.60;;
46561;SDS011;32289;42.688;23.330;2023-03-01T01:20:19;4.35;;;1.23;;
46561;SDS011;32289;42.688;23.330;2023-03-01T01:24:00;2.33;;;1.30;;
46561;SDS011;32289;42.688;23.330;2023-03-01T01:27:42;1.33;;;0.95;;
46561;SDS011;32289;42.688;23.330;2023-03-01T01:31:23;2.13;;;1.50;;
46561;SDS011;32289;42.688;23.330;2023-03-01T01:35:05;1.50;;;0.90;;
46561;SDS011;32289;42.688;23.330;2023-03-01T01:38:46;1.85;;;0.93;;
46561;SDS011;32289;42.688;23.330;2023-03-01T01:42:27;3.03;;;1.10;;
46561;SDS011;32289;42.688;23.330;2023-03-01T01:50:11;1.92;;;1.20;;
46561;SDS011;32289;42.688;23.330;2023-03-01T01:53:58;1.33;;;0.90;;
46561;SDS011;32289;42.688;23.330;2023-03-01T01:57:45;1.70;;;1.00;;
46561;SDS011;32289;42.688;23.330;2023-03-01T02:01:28;1.63;;;0.95;;
46561;SDS011;32289;42.688;23.330;2023-03-01T02:05:11;1.67;;;0.98;;
46561;SDS011;32289;42.688;23.330;2023-03-01T02:08:59;1.45;;;0.70;;
46561;SDS011;32289;42.688;23.330;2023-03-01T02:12:43;2.03;;;0.77;;
46561;SDS011;32289;42.688;23.330;2023-03-01T02:16:25;2.03;;;1.02;;
46561;SDS011;32289;42.688;23.330;2023-03-01T02:24:33;1.63;;;0.90;;
46561;SDS011;32289;42.688;23.330;2023-03-01T02:32:14;1.60;;;1.05;;
46561;SDS011;32289;42.688;23.330;2023-03-01T02:35:56;2.30;;;1.05;;
46561;SDS011;32289;42.688;23.330;2023-03-01T02:39:42;2.05;;;1.08;;
46561;SDS011;32289;42.688;23.330;2023-03-01T02:43:27;2.90;;;1.47;;
46561;SDS011;32289;42.688;23.330;2023-03-01T02:47:11;2.78;;;1.13;;
46561;SDS011;32289;42.688;23.330;2023-03-01T02:50:53;2.20;;;1.10;;
46561;SDS011;32289;42.688;23.330;2023-03-01T02:58:44;2.80;;;1.60;;
46561;SDS011;32289;42.688;23.330;2023-03-01T03:02:29;2.45;;;0.93;;
46561;SDS011;32289;42.688;23.330;2023-03-01T03:06:15;2.33;;;1.20;;
46561;SDS011;32289;42.688;23.330;2023-03-01T03:09:56;2.03;;;1.15;;
46561;SDS011;32289;42.688;23.330;2023-03-01T03:13:37;1.98;;;0.93;;
46561;SDS011;32289;42.688;23.330;2023-03-01T03:17:27;1.42;;;1.00;;
46561;SDS011;32289;42.688;23.330;2023-03-01T03:21:08;2.97;;;1.30;;
46561;SDS011;32289;42.688;23.330;2023-03-01T03:24:51;2.08;;;1.13;;
46561;SDS011;32289;42.688;23.330;2023-03-01T03:28:32;2.33;;;1.20;;
46561;SDS011;32289;42.688;23.330;2023-03-01T03:32:14;1.35;;;0.90;;
46561;SDS011;32289;42.688;23.330;2023-03-01T03:35:54;1.95;;;1.23;;
46561;SDS011;32289;42.688;23.330;2023-03-01T03:39:35;2.75;;;1.20;;
46561;SDS011;32289;42.688;23.330;2023-03-01T03:47:16;2.20;;;1.40;;
46561;SDS011;32289;42.688;23.330;2023-03-01T03:50:56;2.55;;;1.25;;
46561;SDS011;32289;42.688;23.330;2023-03-01T03:54:37;2.53;;;1.48;;
46561;SDS011;32289;42.688;23.330;2023-03-01T03:58:18;5.05;;;1.58;;
46561;SDS011;32289;42.688;23.330;2023-03-01T04:02:01;3.55;;;1.73;;
46561;SDS011;32289;42.688;23.330;2023-03-01T04:06:02;1.80;;;1.25;;
46561;SDS011;32289;42.688;23.330;2023-03-01T04:09:44;2.03;;;1.13;;
46561;SDS011;32289;42.688;23.330;2023-03-01T04:13:25;1.88;;;1.00;;
46561;SDS011;32289;42.688;23.330;2023-03-01T04:17:06;1.63;;;0.98;;
46561;SDS011;32289;42.688;23.330;2023-03-01T04:20:47;1.60;;;1.02;;
46561;SDS011;32289;42.688;23.330;2023-03-01T04:24:28;2.28;;;1.13;;
46561;SDS011;32289;42.688;23.330;2023-03-01T04:28:09;2.08;;;1.20;;
46561;SDS011;32289;42.688;23.330;2023-03-01T04:31:50;2.15;;;1.23;;
46561;SDS011;32289;42.688;23.330;2023-03-01T04:35:31;2.55;;;1.25;;
46561;SDS011;32289;42.688;23.330;2023-03-01T04:39:12;2.65;;;0.98;;
46561;SDS011;32289;42.688;23.330;2023-03-01T04:42:53;2.47;;;1.65;;
46561;SDS011;32289;42.688;23.330;2023-03-01T04:46:33;2.28;;;1.30;;
46561;SDS011;32289;42.688;23.330;2023-03-01T04:50:16;1.80;;;1.02;;
46561;SDS011;32289;42.688;23.330;2023-03-01T04:53:57;2.00;;;1.10;;
46561;SDS011;32289;42.688;23.330;2023-03-01T04:57:38;2.25;;;1.30;;
46561;SDS011;32289;42.688;23.330;2023-03-01T05:01:19;1.95;;;1.30;;
46561;SDS011;32289;42.688;23.330;2023-03-01T05:05:00;2.67;;;1.58;;
46561;SDS011;32289;42.688;23.330;2023-03-01T05:08:41;2.55;;;1.55;;
46561;SDS011;32289;42.688;23.330;2023-03-01T05:12:22;2.90;;;1.40;;
46561;SDS011;32289;42.688;23.330;2023-03-01T05:16:04;2.95;;;1.90;;
46561;SDS011;32289;42.688;23.330;2023-03-01T05:19:45;2.55;;;1.27;;
46561;SDS011;32289;42.688;23.330;2023-03-01T05:23:26;5.15;;;1.40;;
46561;SDS011;32289;42.688;23.330;2023-03-01T05:27:07;5.15;;;2.20;;
46561;SDS011;32289;42.688;23.330;2023-03-01T05:30:47;4.78;;;2.10;;
46561;SDS011;32289;42.688;23.330;2023-03-01T05:34:32;2.67;;;1.25;;
46561;SDS011;32289;42.688;23.330;2023-03-01T05:38:15;5.20;;;2.42;;
46561;SDS011;32289;42.688;23.330;2023-03-01T05:41:58;4.97;;;1.95;;
46561;SDS011;32289;42.688;23.330;2023-03-01T05:45:41;4.53;;;2.17;;
46561;SDS011;32289;42.688;23.330;2023-03-01T05:49:22;3.28;;;1.80;;
46561;SDS011;32289;42.688;23.330;2023-03-01T05:53:07;2.47;;;1.50;;
46561;SDS011;32289;42.688;23.330;2023-03-01T05:56:57;5.35;;;2.20;;
46561;SDS011;32289;42.688;23.330;2023-03-01T06:00:38;2.30;;;1.48;;
46561;SDS011;32289;42.688;23.330;2023-03-01T06:04:19;2.90;;;1.42;;
46561;SDS011;32289;42.688;23.330;2023-03-01T06:08:01;3.85;;;1.92;;
46561;SDS011;32289;42.688;23.330;2023-03-01T06:11:42;4.43;;;2.08;;
46561;SDS011;32289;42.688;23.330;2023-03-01T06:15:24;3.65;;;1.70;;
46561;SDS011;32289;42.688;23.330;2023-03-01T06:19:05;3.67;;;1.70;;
46561;SDS011;32289;42.688;23.330;2023-03-01T06:22:46;3.45;;;1.98;;
46561;SDS011;32289;42.688;23.330;2023-03-01T06:26:27;4.50;;;2.33;;
46561;SDS011;32289;42.688;23.330;2023-03-01T06:30:09;2.75;;;1.58;;
46561;SDS011;32289;42.688;23.330;2023-03-01T06:33:52;3.67;;;2.13;;
46561;SDS011;32289;42.688;23.330;2023-03-01T06:37:32;6.95;;;1.77;;
46561;SDS011;32289;42.688;23.330;2023-03-01T06:41:13;3.63;;;1.38;;
46561;SDS011;32289;42.688;23.330;2023-03-01T06:44:54;6.00;;;2.20;;
46561;SDS011;32289;42.688;23.330;2023-03-01T06:48:35;3.15;;;1.73;;
46561;SDS011;32289;42.688;23.330;2023-03-01T06:52:16;1.98;;;1.27;;
46561;SDS011;32289;42.688;23.330;2023-03-01T06:55:57;3.42;;;1.40;;
46561;SDS011;32289;42.688;23.330;2023-03-01T06:59:39;3.83;;;1.77;;
46561;SDS011;32289;42.688;23.330;2023-03-01T07:03:19;2.78;;;1.33;;
46561;SDS011;32289;42.688;23.330;2023-03-01T07:07:00;6.18;;;1.63;;
46561;SDS011;32289;42.688;23.330;2023-03-01T07:10:41;3.30;;;1.50;;
46561;SDS011;32289;42.688;23.330;2023-03-01T07:14:22;2.97;;;1.38;;
46561;SDS011;32289;42.688;23.330;2023-03-01T07:18:05;5.15;;;1.70;;
46561;SDS011;32289;42.688;23.330;2023-03-01T07:21:46;4.68;;;1.75;;
46561;SDS011;32289;42.688;23.330;2023-03-01T07:25:27;3.38;;;1.88;;
46561;SDS011;32289;42.688;23.330;2023-03-01T07:29:09;2.15;;;1.17;;
46561;SDS011;32289;42.688;23.330;2023-03-01T07:32:50;1.98;;;1.15;;
46561;SDS011;32289;42.688;23.330;2023-03-01T07:36:31;1.27;;;0.93;;
46561;SDS011;32289;42.688;23.330;2023-03-01T07:40:12;5.32;;;1.75;;
46561;SDS011;32289;42.688;23.330;2023-03-01T07:43:53;1.40;;;0.90;;
46561;SDS011;32289;42.688;23.330;2023-03-01T07:47:34;3.63;;;1.63;;
46561;SDS011;32289;42.688;23.330;2023-03-01T07:51:15;2.20;;;1.15;;
46561;SDS011;32289;42.688;23.330;2023-03-01T07:54:56;4.03;;;1.30;;
46561;SDS011;32289;42.688;23.330;2023-03-01T07:58:37;2.63;;;1.50;;
46561;SDS011;32289;42.688;23.330;2023-03-01T08:02:19;1.85;;;1.13;;
46561;SDS011;32289;42.688;23.330;2023-03-01T08:06:00;1.73;;;1.10;;
46561;SDS011;32289;42.688;23.330;2023-03-01T08:09:42;1.90;;;1.40;;
46561;SDS011;32289;42.688;23.330;2023-03-01T08:13:23;1.95;;;1.10;;
46561;SDS011;32289;42.688;23.330;2023-03-01T08:17:03;3.17;;;1.70;;
46561;SDS011;32289;42.688;23.330;2023-03-01T08:20:44;2.08;;;1.02;;
46561;SDS011;32289;42.688;23.330;2023-03-01T08:24:25;1.88;;;1.20;;
46561;SDS011;32289;42.688;23.330;2023-03-01T08:28:06;2.80;;;1.30;;
46561;SDS011;32289;42.688;23.330;2023-03-01T08:31:47;2.75;;;1.27;;
46561;SDS011;32289;42.688;23.330;2023-03-01T08:35:28;1.95;;;1.20;;
46561;SDS011;32289;42.688;23.330;2023-03-01T08:39:09;3.92;;;1.00;;
46561;SDS011;32289;42.688;23.330;2023-03-01T08:42:51;2.35;;;1.13;;
46561;SDS011;32289;42.688;23.330;2023-03-01T08:46:33;1.73;;;0.98;;
46561;SDS011;32289;42.688;23.330;2023-03-01T08:50:16;1.63;;;0.90;;
46561;SDS011;32289;42.688;23.330;2023-03-01T08:53:56;2.58;;;1.33;;
46561;SDS011;32289;42.688;23.330;2023-03-01T08:57:37;1.75;;;1.00;;
46561;SDS011;32289;42.688;23.330;2023-03-01T09:01:18;1.77;;;1.25;;
46561;SDS011;32289;42.688;23.330;2023-03-01T09:04:59;1.60;;;0.98;;
46561;SDS011;32289;42.688;23.330;2023-03-01T09:08:41;2.50;;;1.50;;
46561;SDS011;32289;42.688;23.330;2023-03-01T09:12:23;3.08;;;1.38;;
46561;SDS011;32289;42.688;23.330;2023-03-01T09:16:05;1.92;;;1.17;;
46561;SDS011;32289;42.688;23.330;2023-03-01T09:19:47;1.92;;;1.35;;
46561;SDS011;32289;42.688;23.330;2023-03-01T09:23:29;3.47;;;1.42;;
46561;SDS011;32289;42.688;23.330;2023-03-01T09:27:09;2.55;;;1.55;;
46561;SDS011;32289;42.688;23.330;2023-03-01T09:30:51;1.77;;;0.85;;
46561;SDS011;32289;42.688;23.330;2023-03-01T09:34:31;2.90;;;1.38;;
46561;SDS011;32289;42.688;23.330;2023-03-01T09:38:32;1.25;;;0.65;;
46561;SDS011;32289;42.688;23.330;2023-03-01T09:42:13;1.42;;;0.75;;
46561;SDS011;32289;42.688;23.330;2023-03-01T09:45:56;2.00;;;1.10;;
46561;SDS011;32289;42.688;23.330;2023-03-01T09:49:44;1.92;;;0.73;;
46561;SDS011;32289;42.688;23.330;2023-03-01T09:53:35;4.47;;;1.02;;
46561;SDS011;32289;42.688;23.330;2023-03-01T10:01:19;1.23;;;0.70;;
46561;SDS011;32289;42.688;23.330;2023-03-01T10:05:14;1.88;;;0.88;;
46561;SDS011;32289;42.688;23.330;2023-03-01T10:09:19;0.80;;;0.60;;
46561;SDS011;32289;42.688;23.330;2023-03-01T10:13:03;1.77;;;0.85;;
46561;SDS011;32289;42.688;23.330;2023-03-01T10:16:54;2.83;;;0.93;;
46561;SDS011;32289;42.688;23.330;2023-03-01T10:20:44;1.30;;;0.60;;
46561;SDS011;32289;42.688;23.330;2023-03-01T10:24:34;2.72;;;1.10;;
46561;SDS011;32289;42.688;23.330;2023-03-01T10:28:20;3.55;;;1.13;;
46561;SDS011;32289;42.688;23.330;2023-03-01T10:32:09;2.15;;;1.00;;
46561;SDS011;32289;42.688;23.330;2023-03-01T10:35:51;1.92;;;1.08;;
46561;SDS011;32289;42.688;23.330;2023-03-01T10:39:32;2.15;;;1.17;;
46561;SDS011;32289;42.688;23.330;2023-03-01T10:43:12;0.98;;;0.60;;
46561;SDS011;32289;42.688;23.330;2023-03-01T10:46:59;2.08;;;0.80;;
46561;SDS011;32289;42.688;23.330;2023-03-01T10:50:51;0.57;;;0.40;;
46561;SDS011;32289;42.688;23.330;2023-03-01T10:54:41;2.53;;;1.23;;
46561;SDS011;32289;42.688;23.330;2023-03-01T10:58:38;0.85;;;0.63;;
46561;SDS011;32289;42.688;23.330;2023-03-01T11:02:24;1.25;;;0.50;;
46561;SDS011;32289;42.688;23.330;2023-03-01T11:09:53;2.80;;;0.80;;
46561;SDS011;32289;42.688;23.330;2023-03-01T11:13:35;2.17;;;0.82;;
46561;SDS011;32289;42.688;23.330;2023-03-01T11:17:18;2.58;;;0.82;;
46561;SDS011;32289;42.688;23.330;2023-03-01T11:21:05;2.08;;;0.80;;
46561;SDS011;32289;42.688;23.330;2023-03-01T11:24:52;2.20;;;0.73;;
46561;SDS011;32289;42.688;23.330;2023-03-01T11:28:35;1.05;;;0.60;;
46561;SDS011;32289;42.688;23.330;2023-03-01T11:32:17;1.38;;;0.70;;
46561;SDS011;32289;42.688;23.330;2023-03-01T11:39:59;2.10;;;0.98;;
46561;SDS011;32289;42.688;23.330;2023-03-01T11:43:57;2.30;;;0.90;;
46561;SDS011;32289;42.688;23.330;2023-03-01T11:52:02;2.33;;;0.82;;
46561;SDS011;32289;42.688;23.330;2023-03-01T11:56:05;2.42;;;1.20;;
46561;SDS011;32289;42.688;23.330;2023-03-01T12:00:07;1.77;;;1.00;;
46561;SDS011;32289;42.688;23.330;2023-03-01T12:19:55;3.25;;;1.40;;
46561;SDS011;32289;42.688;23.330;2023-03-01T12:36:11;4.18;;;2.08;;
46561;SDS011;32289;42.688;23.330;2023-03-01T12:40:27;5.32;;;1.10;;
46561;SDS011;32289;42.688;23.330;2023-03-01T12:56:35;4.32;;;1.80;;
46561;SDS011;32289;42.688;23.330;2023-03-01T13:04:12;1.83;;;1.00;;
46561;SDS011;32289;42.688;23.330;2023-03-01T13:08:27;2.65;;;1.05;;
46561;SDS011;32289;42.688;23.330;2023-03-01T13:16:39;3.83;;;1.10;;
46561;SDS011;32289;42.688;23.330;2023-03-01T13:36:08;1.85;;;1.15;;
46561;SDS011;32289;42.688;23.330;2023-03-01T13:39:53;2.25;;;1.35;;
46561;SDS011;32289;42.688;23.330;2023-03-01T13:43:38;2.45;;;1.17;;
46561;SDS011;32289;42.688;23.330;2023-03-01T13:47:21;4.88;;;1.13;;
46561;SDS011;32289;42.688;23.330;2023-03-01T13:51:04;4.32;;;1.55;;
46561;SDS011;32289;42.688;23.330;2023-03-01T13:54:48;2.25;;;1.52;;
46561;SDS011;32289;42.688;23.330;2023-03-01T13:58:30;3.10;;;1.88;;
46561;SDS011;32289;42.688;23.330;2023-03-01T14:02:23;3.80;;;1.60;;
46561;SDS011;32289;42.688;23.330;2023-03-01T14:09:48;3.78;;;1.17;;
46561;SDS011;32289;42.688;23.330;2023-03-01T14:17:58;4.85;;;1.23;;
46561;SDS011;32289;42.688;23.330;2023-03-01T14:25:54;2.83;;;1.40;;
46561;SDS011;32289;42.688;23.330;2023-03-01T14:29:37;2.60;;;1.25;;
46561;SDS011;32289;42.688;23.330;2023-03-01T14:37:10;3.08;;;1.73;;
46561;SDS011;32289;42.688;23.330;2023-03-01T14:44:53;3.03;;;1.13;;
46561;SDS011;32289;42.688;23.330;2023-03-01T14:48:36;2.13;;;1.05;;
46561;SDS011;32289;42.688;23.330;2023-03-01T14:52:18;2.00;;;1.20;;
46561;SDS011;32289;42.688;23.330;2023-03-01T14:56:01;3.60;;;1.13;;
46561;SDS011;32289;42.688;23.330;2023-03-01T14:59:43;4.22;;;1.48;;
46561;SDS011;32289;42.688;23.330;2023-03-01T15:03:30;2.53;;;1.23;;
46561;SDS011;32289;42.688;23.330;2023-03-01T15:07:12;2.20;;;0.82;;
46561;SDS011;32289;42.688;23.330;2023-03-01T15:11:36;4.55;;;1.35;;
46561;SDS011;32289;42.688;23.330;2023-03-01T15:19:05;3.17;;;1.50;;
46561;SDS011;32289;42.688;23.330;2023-03-01T15:22:46;2.38;;;1.10;;
46561;SDS011;32289;42.688;23.330;2023-03-01T15:26:30;3.90;;;1.63;;
46561;SDS011;32289;42.688;23.330;2023-03-01T15:30:17;5.63;;;1.55;;
46561;SDS011;32289;42.688;23.330;2023-03-01T15:38:22;3.20;;;1.52;;
46561;SDS011;32289;42.688;23.330;2023-03-01T15:42:08;6.43;;;1.40;;
46561;SDS011;32289;42.688;23.330;2023-03-01T15:45:56;3.70;;;1.52;;
46561;SDS011;32289;42.688;23.330;2023-03-01T15:49:41;2.80;;;1.48;;
46561;SDS011;32289;42.688;23.330;2023-03-01T15:53:23;2.67;;;1.20;;
46561;SDS011;32289;42.688;23.330;2023-03-01T15:57:13;3.47;;;1.40;;
46561;SDS011;32289;42.688;23.330;2023-03-01T16:00:56;3.10;;;1.50;;
46561;SDS011;32289;42.688;23.330;2023-03-01T16:04:39;3.95;;;1.10;;
46561;SDS011;32289;42.688;23.330;2023-03-01T16:08:19;6.07;;;1.30;;
46561;SDS011;32289;42.688;23.330;2023-03-01T16:12:00;5.20;;;1.88;;
46561;SDS011;32289;42.688;23.330;2023-03-01T16:15:41;1.27;;;0.75;;
46561;SDS011;32289;42.688;23.330;2023-03-01T16:19:22;3.42;;;1.33;;
46561;SDS011;32289;42.688;23.330;2023-03-01T16:23:05;3.45;;;1.67;;
46561;SDS011;32289;42.688;23.330;2023-03-01T16:26:47;2.90;;;1.17;;
46561;SDS011;32289;42.688;23.330;2023-03-01T16:30:27;4.95;;;1.90;;
46561;SDS011;32289;42.688;23.330;2023-03-01T16:34:08;7.32;;;1.92;;
46561;SDS011;32289;42.688;23.330;2023-03-01T16:37:49;4.07;;;1.70;;
46561;SDS011;32289;42.688;23.330;2023-03-01T16:41:32;3.85;;;1.33;;
46561;SDS011;32289;42.688;23.330;2023-03-01T16:45:13;3.65;;;1.75;;
46561;SDS011;32289;42.688;23.330;2023-03-01T16:48:54;2.75;;;1.48;;
46561;SDS011;32289;42.688;23.330;2023-03-01T16:52:35;4.50;;;2.28;;
46561;SDS011;32289;42.688;23.330;2023-03-01T16:56:16;4.07;;;1.60;;
46561;SDS011;32289;42.688;23.330;2023-03-01T16:59:58;5.53;;;2.05;;
46561;SDS011;32289;42.688;23.330;2023-03-01T17:03:39;4.65;;;2.38;;
46561;SDS011;32289;42.688;23.330;2023-03-01T17:07:21;4.57;;;2.15;;
46561;SDS011;32289;42.688;23.330;2023-03-01T17:11:03;4.10;;;2.00;;
46561;SDS011;32289;42.688;23.330;2023-03-01T17:14:46;3.15;;;1.67;;
46561;SDS011;32289;42.688;23.330;2023-03-01T17:18:26;4.60;;;2.80;;
46561;SDS011;32289;42.688;23.330;2023-03-01T17:22:07;9.48;;;2.72;;
46561;SDS011;32289;42.688;23.330;2023-03-01T17:25:48;7.03;;;3.15;;
46561;SDS011;32289;42.688;23.330;2023-03-01T17:29:29;6.57;;;2.13;;
46561;SDS011;32289;42.688;23.330;2023-03-01T17:33:10;7.32;;;3.03;;
46561;SDS011;32289;42.688;23.330;2023-03-01T17:36:51;10.93;;;2.30;;
46561;SDS011;32289;42.688;23.330;2023-03-01T17:40:32;6.32;;;3.42;;
46561;SDS011;32289;42.688;23.330;2023-03-01T17:44:14;8.65;;;3.45;;
46561;SDS011;32289;42.688;23.330;2023-03-01T17:47:55;9.18;;;3.58;;
46561;SDS011;32289;42.688;23.330;2023-03-01T17:51:36;10.48;;;4.05;;
46561;SDS011;32289;42.688;23.330;2023-03-01T17:55:17;6.82;;;3.22;;
46561;SDS011;32289;42.688;23.330;2023-03-01T17:58:58;7.53;;;3.78;;
46561;SDS011;32289;42.688;23.330;2023-03-01T18:02:39;6.45;;;3.45;;
46561;SDS011;32289;42.688;23.330;2023-03-01T18:06:22;8.57;;;4.13;;
46561;SDS011;32289;42.688;23.330;2023-03-01T18:10:04;12.95;;;5.68;;
46561;SDS011;32289;42.688;23.330;2023-03-01T18:13:45;9.27;;;4.55;;
46561;SDS011;32289;42.688;23.330;2023-03-01T18:17:27;8.40;;;4.00;;
46561;SDS011;32289;42.688;23.330;2023-03-01T18:21:08;7.80;;;4.20;;
46561;SDS011;32289;42.688;23.330;2023-03-01T18:24:49;9.15;;;3.85;;
46561;SDS011;32289;42.688;23.330;2023-03-01T18:28:30;10.70;;;4.85;;
46561;SDS011;32289;42.688;23.330;2023-03-01T18:32:11;8.43;;;3.63;;
46561;SDS011;32289;42.688;23.330;2023-03-01T18:35:51;8.95;;;5.07;;
46561;SDS011;32289;42.688;23.330;2023-03-01T18:39:33;10.32;;;4.95;;
46561;SDS011;32289;42.688;23.330;2023-03-01T18:43:14;9.20;;;4.50;;
46561;SDS011;32289;42.688;23.330;2023-03-01T18:46:54;13.48;;;5.07;;
46561;SDS011;32289;42.688;23.330;2023-03-01T18:50:37;11.15;;;3.67;;
46561;SDS011;32289;42.688;23.330;2023-03-01T18:54:18;8.40;;;4.35;;
46561;SDS011;32289;42.688;23.330;2023-03-01T18:57:59;8.88;;;4.13;;
46561;SDS011;32289;42.688;23.330;2023-03-01T19:01:39;7.00;;;3.08;;
46561;SDS011;32289;42.688;23.330;2023-03-01T19:05:20;7.53;;;4.03;;
46561;SDS011;32289;42.688;23.330;2023-03-01T19:09:02;9.18;;;4.65;;
46561;SDS011;32289;42.688;23.330;2023-03-01T19:12:44;8.82;;;4.13;;
46561;SDS011;32289;42.688;23.330;2023-03-01T19:16:25;9.23;;;4.50;;
46561;SDS011;32289;42.688;23.330;2023-03-01T19:20:08;12.40;;;4.78;;
46561;SDS011;32289;42.688;23.330;2023-03-01T19:23:51;6.53;;;3.50;;
46561;SDS011;32289;42.688;23.330;2023-03-01T19:27:32;10.65;;;4.22;;
46561;SDS011;32289;42.688;23.330;2023-03-01T19:31:15;7.65;;;3.83;;
46561;SDS011;32289;42.688;23.330;2023-03-01T19:34:57;13.68;;;5.00;;
46561;SDS011;32289;42.688;23.330;2023-03-01T19:38:39;7.35;;;4.13;;
46561;SDS011;32289;42.688;23.330;2023-03-01T19:42:20;8.45;;;3.60;;
46561;SDS011;32289;42.688;23.330;2023-03-01T19:46:05;7.07;;;3.75;;
46561;SDS011;32289;42.688;23.330;2023-03-01T19:49:46;9.90;;;4.85;;
46561;SDS011;32289;42.688;23.330;2023-03-01T19:53:26;7.30;;;3.95;;
46561;SDS011;32289;42.688;23.330;2023-03-01T19:57:07;8.48;;;4.07;;
46561;SDS011;32289;42.688;23.330;2023-03-01T20:00:48;11.68;;;5.20;;
46561;SDS011;32289;42.688;23.330;2023-03-01T20:04:31;8.70;;;4.78;;
46561;SDS011;32289;42.688;23.330;2023-03-01T20:08:12;9.75;;;5.03;;
46561;SDS011;32289;42.688;23.330;2023-03-01T20:11:53;14.38;;;4.75;;
46561;SDS011;32289;42.688;23.330;2023-03-01T20:15:33;10.73;;;4.85;;
46561;SDS011;32289;42.688;23.330;2023-03-01T20:19:14;12.98;;;5.90;;
46561;SDS011;32289;42.688;23.330;2023-03-01T20:22:55;10.50;;;4.70;;
46561;SDS011;32289;42.688;23.330;2023-03-01T20:26:36;11.65;;;4.95;;
46561;SDS011;32289;42.688;23.330;2023-03-01T20:30:16;9.05;;;4.45;;
46561;SDS011;32289;42.688;23.330;2023-03-01T20:33:58;13.93;;;6.28;;
46561;SDS011;32289;42.688;23.330;2023-03-01T20:37:39;11.60;;;4.05;;
46561;SDS011;32289;42.688;23.330;2023-03-01T20:41:20;13.75;;;6.00;;
46561;SDS011;32289;42.688;23.330;2023-03-01T20:45:05;14.18;;;5.40;;
46561;SDS011;32289;42.688;23.330;2023-03-01T20:48:46;8.40;;;3.88;;
46561;SDS011;32289;42.688;23.330;2023-03-01T20:52:26;12.02;;;4.88;;
46561;SDS011;32289;42.688;23.330;2023-03-01T20:56:09;6.70;;;3.80;;
46561;SDS011;32289;42.688;23.330;2023-03-01T20:59:52;12.02;;;6.03;;
46561;SDS011;32289;42.688;23.330;2023-03-01T21:03:32;11.68;;;4.97;;
46561;SDS011;32289;42.688;23.330;2023-03-01T21:07:13;9.38;;;4.03;;
46561;SDS011;32289;42.688;23.330;2023-03-01T21:10:54;8.75;;;4.20;;
46561;SDS011;32289;42.688;23.330;2023-03-01T21:14:36;12.20;;;5.25;;
46561;SDS011;32289;42.688;23.330;2023-03-01T21:18:26;8.52;;;4.35;;
46561;SDS011;32289;42.688;23.330;2023-03-01T21:22:13;6.32;;;2.95;;
46561;SDS011;32289;42.688;23.330;2023-03-01T21:29:44;11.82;;;4.78;;
46561;SDS011;32289;42.688;23.330;2023-03-01T21:33:25;7.60;;;3.25;;
46561;SDS011;32289;42.688;23.330;2023-03-01T21:37:07;9.20;;;4.32;;
46561;SDS011;32289;42.688;23.330;2023-03-01T21:40:49;8.02;;;3.15;;
46561;SDS011;32289;42.688;23.330;2023-03-01T21:44:30;11.35;;;5.10;;
46561;SDS011;32289;42.688;23.330;2023-03-01T21:48:11;9.10;;;3.60;;
46561;SDS011;32289;42.688;23.330;2023-03-01T21:51:52;8.07;;;3.58;;
46561;SDS011;32289;42.688;23.330;2023-03-01T21:55:32;9.38;;;3.90;;
46561;SDS011;32289;42.688;23.330;2023-03-01T21:59:14;8.63;;;3.55;;
46561;SDS011;32289;42.688;23.330;2023-03-01T22:03:00;9.68;;;3.97;;
46561;SDS011;32289;42.688;23.330;2023-03-01T22:06:41;8.88;;;3.88;;
46561;SDS011;32289;42.688;23.330;2023-03-01T22:10:24;9.15;;;3.33;;
46561;SDS011;32289;42.688;23.330;2023-03-01T22:14:08;7.68;;;3.40;;
46561;SDS011;32289;42.688;23.330;2023-03-01T22:17:50;8.93;;;3.15;;
46561;SDS011;32289;42.688;23.330;2023-03-01T22:21:33;6.88;;;2.45;;
46561;SDS011;32289;42.688;23.330;2023-03-01T22:25:17;6.30;;;2.85;;
46561;SDS011;32289;42.688;23.330;2023-03-01T22:28:58;4.63;;;2.63;;
46561;SDS011;32289;42.688;23.330;2023-03-01T22:32:40;5.38;;;2.00;;
46561;SDS011;32289;42.688;23.330;2023-03-01T22:36:21;5.90;;;2.40;;
46561;SDS011;32289;42.688;23.330;2023-03-01T22:40:03;5.00;;;2.13;;
46561;SDS011;32289;42.688;23.330;2023-03-01T22:43:44;5.28;;;2.42;;
46561;SDS011;32289;42.688;23.330;2023-03-01T22:47:25;5.47;;;2.30;;
46561;SDS011;32289;42.688;23.330;2023-03-01T22:51:06;4.53;;;2.60;;
46561;SDS011;32289;42.688;23.330;2023-03-01T22:54:47;4.20;;;1.83;;
46561;SDS011;32289;42.688;23.330;2023-03-01T22:58:28;4.25;;;2.35;;
46561;SDS011;32289;42.688;23.330;2023-03-01T23:02:08;3.13;;;1.55;;
46561;SDS011;32289;42.688;23.330;2023-03-01T23:05:49;2.17;;;1.42;;
46561;SDS011;32289;42.688;23.330;2023-03-01T23:09:31;3.63;;;1.98;;
46561;SDS011;32289;42.688;23.330;2023-03-01T23:13:13;4.47;;;2.30;;
46561;SDS011;32289;42.688;23.330;2023-03-01T23:16:54;3.58;;;1.67;;
46561;SDS011;32289;42.688;23.330;2023-03-01T23:20:35;6.43;;;2.03;;
46561;SDS011;32289;42.688;23.330;2023-03-01T23:24:16;2.67;;;1.40;;
46561;SDS011;32289;42.688;23.330;2023-03-01T23:27:58;5.38;;;3.22;;
46561;SDS011;32289;42.688;23.330;2023-03-01T23:31:39;3.40;;;2.03;;
46561;SDS011;32289;42.688;23.330;2023-03-01T23:35:19;3.83;;;2.00;;
46561;SDS011;32289;42.688;23.330;2023-03-01T23:39:02;5.30;;;1.58;;
46561;SDS011;32289;42.688;23.330;2023-03-01T23:42:45;3.00;;;1.48;;
46561;SDS011;32289;42.688;23.330;2023-03-01T23:46:27;1.75;;;1.20;;
46561;SDS011;32289;42.688;23.330;2023-03-01T23:50:09;2.67;;;1.48;;
46561;SDS011;32289;42.688;23.330;2023-03-01T23:53:54;3.63;;;1.80;;
46561;SDS011;32289;42.688;23.330;2023-03-01T23:57:38;2.13;;;1.40;;
